sensor_id;sensor_type;location;lat;lon;timestamp;pressure;altitude;pressure_sealevel;temperature;humidity
72210;BME280;60113;48.762;12.302;2022-10-16T00:02:17;97251.19;;;12.24;91.77
72210;BME280;60113;48.762;12.302;2022-10-16T00:04:42;97248.56;;;12.24;92.09
72210;BME280;60113;48.762;12.302;2022-10-16T00:07:08;97237.16;;;12.24;91.57
72210;BME280;60113;48.762;12.302;2022-10-16T00:09:34;97235.50;;;12.23;91.44
72210;BME280;60113;48.762;12.302;2022-10-16T00:12:00;97241.59;;;12.23;90.86
72210;BME280;60113;48.762;12.302;2022-10-16T00:14:26;97244.34;;;12.22;91.26
72210;BME280;60113;48.762;12.302;2022-10-16T00:16:52;97248.94;;;12.20;91.35
72210;BME280;60113;48.762;12.302;2022-10-16T00:19:19;97241.16;;;12.18;91.80
72210;BME280;60113;48.762;12.302;2022-10-16T00:21:45;97240.44;;;12.16;91.03
72210;BME280;60113;48.762;12.302;2022-10-16T00:24:11;97247.75;;;12.12;91.16
72210;BME280;60113;48.762;12.302;2022-10-16T00:26:37;97234.00;;;12.09;90.92
72210;BME280;60113;48.762;12.302;2022-10-16T00:29:04;97224.66;;;12.05;91.07
72210;BME280;60113;48.762;12.302;2022-10-16T00:31:30;97231.13;;;12.00;91.35
72210;BME280;60113;48.762;12.302;2022-10-16T00:33:56;97244.44;;;11.99;91.58
72210;BME280;60113;48.762;12.302;2022-10-16T00:36:23;97242.75;;;11.98;91.71
72210;BME280;60113;48.762;12.302;2022-10-16T00:38:54;97240.13;;;11.98;92.18
72210;BME280;60113;48.762;12.302;2022-10-16T00:41:20;97246.50;;;11.95;91.44
72210;BME280;60113;48.762;12.302;2022-10-16T00:43:57;97252.00;;;11.92;91.78
72210;BME280;60113;48.762;12.302;2022-10-16T00:46:37;97246.03;;;11.90;92.04
72210;BME280;60113;48.762;12.302;2022-10-16T00:49:13;97248.78;;;11.88;91.58
72210;BME280;60113;48.762;12.302;2022-10-16T00:51:42;97257.78;;;11.86;91.68
72210;BME280;60113;48.762;12.302;2022-10-16T00:54:15;97251.78;;;11.84;92.47
72210;BME280;60113;48.762;12.302;2022-10-16T00:56:41;97245.00;;;11.81;94.25
72210;BME280;60113;48.762;12.302;2022-10-16T00:59:16;97254.69;;;11.81;92.34
72210;BME280;60113;48.762;12.302;2022-10-16T01:01:43;97256.34;;;11.82;91.80
72210;BME280;60113;48.762;12.302;2022-10-16T01:04:09;97252.88;;;11.81;91.94
72210;BME280;60113;48.762;12.302;2022-10-16T01:09:17;97256.84;;;11.75;92.07
72210;BME280;60113;48.762;12.302;2022-10-16T01:12:05;97247.66;;;11.70;93.14
72210;BME280;60113;48.762;12.302;2022-10-16T01:17:11;97249.59;;;11.56;92.91
72210;BME280;60113;48.762;12.302;2022-10-16T01:20:10;97250.22;;;11.48;92.07
72210;BME280;60113;48.762;12.302;2022-10-16T01:22:53;97245.69;;;11.39;92.79
72210;BME280;60113;48.762;12.302;2022-10-16T01:25:43;97247.84;;;11.34;92.67
72210;BME280;60113;48.762;12.302;2022-10-16T01:28:14;97242.81;;;11.31;92.54
72210;BME280;60113;48.762;12.302;2022-10-16T01:30:44;97251.91;;;11.27;91.84
72210;BME280;60113;48.762;12.302;2022-10-16T01:33:17;97253.25;;;11.21;92.83
72210;BME280;60113;48.762;12.302;2022-10-16T01:35:52;97263.16;;;11.17;93.37
72210;BME280;60113;48.762;12.302;2022-10-16T01:38:23;97259.81;;;11.15;93.19
72210;BME280;60113;48.762;12.302;2022-10-16T01:40:55;97271.28;;;11.14;92.37
72210;BME280;60113;48.762;12.302;2022-10-16T01:43:43;97265.19;;;11.13;92.64
72210;BME280;60113;48.762;12.302;2022-10-16T01:46:13;97257.41;;;11.12;91.61
72210;BME280;60113;48.762;12.302;2022-10-16T01:48:40;97269.88;;;11.10;92.42
72210;BME280;60113;48.762;12.302;2022-10-16T01:51:09;97276.91;;;11.09;91.54
72210;BME280;60113;48.762;12.302;2022-10-16T01:53:37;97276.19;;;11.07;92.53
72210;BME280;60113;48.762;12.302;2022-10-16T01:56:08;97265.09;;;11.04;92.38
72210;BME280;60113;48.762;12.302;2022-10-16T01:58:38;97276.53;;;11.03;92.58
72210;BME280;60113;48.762;12.302;2022-10-16T02:01:07;97281.09;;;11.00;92.52
72210;BME280;60113;48.762;12.302;2022-10-16T02:03:36;97286.59;;;10.97;92.86
72210;BME280;60113;48.762;12.302;2022-10-16T02:06:03;97280.72;;;10.94;93.10
72210;BME280;60113;48.762;12.302;2022-10-16T02:08:30;97277.72;;;10.87;92.10
72210;BME280;60113;48.762;12.302;2022-10-16T02:10:57;97288.47;;;10.84;92.67
72210;BME280;60113;48.762;12.302;2022-10-16T02:13:31;97287.16;;;10.78;93.49
72210;BME280;60113;48.762;12.302;2022-10-16T02:15:58;97287.63;;;10.72;93.44
72210;BME280;60113;48.762;12.302;2022-10-16T02:18:25;97285.59;;;10.64;93.30
72210;BME280;60113;48.762;12.302;2022-10-16T02:24:03;97275.78;;;10.55;92.98
72210;BME280;60113;48.762;12.302;2022-10-16T02:29:23;97284.78;;;10.39;94.43
72210;BME280;60113;48.762;12.302;2022-10-16T02:32:01;97292.28;;;10.32;93.46
72210;BME280;60113;48.762;12.302;2022-10-16T02:34:31;97294.53;;;10.25;93.61
72210;BME280;60113;48.762;12.302;2022-10-16T02:36:59;97290.69;;;10.18;92.28
72210;BME280;60113;48.762;12.302;2022-10-16T02:39:27;97289.44;;;10.11;93.65
72210;BME280;60113;48.762;12.302;2022-10-16T02:41:54;97299.25;;;10.09;92.55
72210;BME280;60113;48.762;12.302;2022-10-16T02:44:20;97286.94;;;10.09;93.33
72210;BME280;60113;48.762;12.302;2022-10-16T02:46:45;97288.50;;;10.12;93.42
72210;BME280;60113;48.762;12.302;2022-10-16T02:49:11;97293.66;;;10.13;93.06
72210;BME280;60113;48.762;12.302;2022-10-16T02:51:36;97296.38;;;10.12;93.08
72210;BME280;60113;48.762;12.302;2022-10-16T02:54:02;97289.56;;;10.09;92.98
72210;BME280;60113;48.762;12.302;2022-10-16T02:56:28;97288.97;;;10.06;93.58
72210;BME280;60113;48.762;12.302;2022-10-16T02:58:55;97284.16;;;9.99;94.23
72210;BME280;60113;48.762;12.302;2022-10-16T03:01:20;97287.22;;;9.93;92.62
72210;BME280;60113;48.762;12.302;2022-10-16T03:03:46;97291.75;;;9.91;93.37
72210;BME280;60113;48.762;12.302;2022-10-16T03:06:12;97291.75;;;9.91;92.48
72210;BME280;60113;48.762;12.302;2022-10-16T03:08:37;97292.59;;;9.92;93.13
72210;BME280;60113;48.762;12.302;2022-10-16T03:11:03;97291.75;;;9.91;93.98
72210;BME280;60113;48.762;12.302;2022-10-16T03:13:28;97291.03;;;9.89;93.32
72210;BME280;60113;48.762;12.302;2022-10-16T03:15:54;97286.72;;;9.88;93.15
72210;BME280;60113;48.762;12.302;2022-10-16T03:18:20;97306.16;;;9.85;92.99
72210;BME280;60113;48.762;12.302;2022-10-16T03:20:45;97290.53;;;9.84;93.89
72210;BME280;60113;48.762;12.302;2022-10-16T03:23:11;97296.63;;;9.84;93.83
72210;BME280;60113;48.762;12.302;2022-10-16T03:25:36;97292.94;;;9.87;93.09
72210;BME280;60113;48.762;12.302;2022-10-16T03:28:02;97285.06;;;9.87;92.77
72210;BME280;60113;48.762;12.302;2022-10-16T03:30:28;97290.41;;;9.85;94.03
72210;BME280;60113;48.762;12.302;2022-10-16T03:32:54;97304.72;;;9.81;93.00
72210;BME280;60113;48.762;12.302;2022-10-16T03:35:23;97309.34;;;9.78;93.00
72210;BME280;60113;48.762;12.302;2022-10-16T03:37:50;97305.28;;;9.73;93.51
72210;BME280;60113;48.762;12.302;2022-10-16T03:40:16;97301.16;;;9.69;93.19
72210;BME280;60113;48.762;12.302;2022-10-16T03:42:42;97303.19;;;9.66;93.06
72210;BME280;60113;48.762;12.302;2022-10-16T03:45:10;97305.81;;;9.66;93.28
72210;BME280;60113;48.762;12.302;2022-10-16T03:47:37;97312.09;;;9.63;92.99
72210;BME280;60113;48.762;12.302;2022-10-16T03:50:03;97313.28;;;9.59;95.45
72210;BME280;60113;48.762;12.302;2022-10-16T03:52:29;97307.28;;;9.57;96.11
72210;BME280;60113;48.762;12.302;2022-10-16T03:54:55;97315.38;;;9.54;96.00
72210;BME280;60113;48.762;12.302;2022-10-16T03:57:21;97312.88;;;9.52;94.70
72210;BME280;60113;48.762;12.302;2022-10-16T03:59:47;97318.97;;;9.53;94.73
72210;BME280;60113;48.762;12.302;2022-10-16T04:02:13;97309.31;;;9.53;93.69
72210;BME280;60113;48.762;12.302;2022-10-16T04:04:40;97315.91;;;9.59;94.45
72210;BME280;60113;48.762;12.302;2022-10-16T04:07:05;97320.94;;;9.62;94.18
72210;BME280;60113;48.762;12.302;2022-10-16T04:09:31;97323.44;;;9.63;93.66
72210;BME280;60113;48.762;12.302;2022-10-16T04:11:56;97333.94;;;9.63;92.92
72210;BME280;60113;48.762;12.302;2022-10-16T04:14:22;97331.66;;;9.59;91.88
72210;BME280;60113;48.762;12.302;2022-10-16T04:16:47;97325.88;;;9.54;91.39
72210;BME280;60113;48.762;12.302;2022-10-16T04:19:13;97320.84;;;9.50;92.80
72210;BME280;60113;48.762;12.302;2022-10-16T04:21:39;97324.53;;;9.48;92.68
72210;BME280;60113;48.762;12.302;2022-10-16T04:24:04;97320.25;;;9.47;92.39
72210;BME280;60113;48.762;12.302;2022-10-16T04:26:30;97327.25;;;9.46;92.76
72210;BME280;60113;48.762;12.302;2022-10-16T04:28:55;97334.16;;;9.47;91.81
72210;BME280;60113;48.762;12.302;2022-10-16T04:31:21;97343.75;;;9.48;92.56
72210;BME280;60113;48.762;12.302;2022-10-16T04:33:47;97335.66;;;9.52;95.56
72210;BME280;60113;48.762;12.302;2022-10-16T04:36:13;97332.94;;;9.53;96.09
72210;BME280;60113;48.762;12.302;2022-10-16T04:38:39;97339.63;;;9.57;95.14
72210;BME280;60113;48.762;12.302;2022-10-16T04:41:07;97336.66;;;9.62;95.14
72210;BME280;60113;48.762;12.302;2022-10-16T04:43:33;97335.59;;;9.65;95.31
72210;BME280;60113;48.762;12.302;2022-10-16T04:46:00;97334.47;;;9.69;94.63
72210;BME280;60113;48.762;12.302;2022-10-16T04:48:26;97335.91;;;9.73;93.14
72210;BME280;60113;48.762;12.302;2022-10-16T04:50:51;97338.22;;;9.78;93.23
72210;BME280;60113;48.762;12.302;2022-10-16T04:53:17;97337.03;;;9.82;93.65
72210;BME280;60113;48.762;12.302;2022-10-16T04:55:43;97335.03;;;9.85;94.44
72210;BME280;60113;48.762;12.302;2022-10-16T04:58:08;97349.72;;;9.88;94.71
72210;BME280;60113;48.762;12.302;2022-10-16T05:00:34;97347.72;;;9.92;94.15
72210;BME280;60113;48.762;12.302;2022-10-16T05:03:00;97347.50;;;9.95;94.57
72210;BME280;60113;48.762;12.302;2022-10-16T05:05:26;97350.75;;;9.98;94.53
72210;BME280;60113;48.762;12.302;2022-10-16T05:07:52;97355.16;;;9.98;93.93
72210;BME280;60113;48.762;12.302;2022-10-16T05:10:18;97349.06;;;9.97;93.68
72210;BME280;60113;48.762;12.302;2022-10-16T05:12:43;97346.44;;;9.97;92.80
72210;BME280;60113;48.762;12.302;2022-10-16T05:15:09;97349.06;;;9.97;93.15
72210;BME280;60113;48.762;12.302;2022-10-16T05:17:35;97342.13;;;9.96;93.83
72210;BME280;60113;48.762;12.302;2022-10-16T05:20:01;97350.84;;;9.97;95.04
72210;BME280;60113;48.762;12.302;2022-10-16T05:22:27;97351.69;;;9.97;94.14
72210;BME280;60113;48.762;12.302;2022-10-16T05:24:52;97350.84;;;9.97;93.95
72210;BME280;60113;48.762;12.302;2022-10-16T05:27:18;97351.69;;;9.97;93.48
72210;BME280;60113;48.762;12.302;2022-10-16T05:29:48;97340.25;;;9.98;94.18
72210;BME280;60113;48.762;12.302;2022-10-16T05:32:18;97343.69;;;9.99;94.31
72210;BME280;60113;48.762;12.302;2022-10-16T05:34:44;97342.75;;;10.00;93.13
72210;BME280;60113;48.762;12.302;2022-10-16T05:37:11;97343.59;;;10.00;94.51
72210;BME280;60113;48.762;12.302;2022-10-16T05:39:38;97350.50;;;10.01;94.58
72210;BME280;60113;48.762;12.302;2022-10-16T05:42:04;97353.97;;;10.02;94.26
72210;BME280;60113;48.762;12.302;2022-10-16T05:44:30;97368.75;;;10.03;94.13
72210;BME280;60113;48.762;12.302;2022-10-16T05:46:55;97357.34;;;10.04;95.22
72210;BME280;60113;48.762;12.302;2022-10-16T05:49:21;97353.75;;;10.05;94.54
72210;BME280;60113;48.762;12.302;2022-10-16T05:51:46;97355.41;;;10.06;94.87
72210;BME280;60113;48.762;12.302;2022-10-16T05:54:12;97349.25;;;10.07;95.45
72210;BME280;60113;48.762;12.302;2022-10-16T05:56:38;97337.66;;;10.10;95.68
72210;BME280;60113;48.762;12.302;2022-10-16T05:59:04;97353.19;;;10.13;95.90
72210;BME280;60113;48.762;12.302;2022-10-16T06:01:31;97343.31;;;10.17;94.82
72210;BME280;60113;48.762;12.302;2022-10-16T06:03:57;97352.75;;;10.19;94.99
72210;BME280;60113;48.762;12.302;2022-10-16T06:06:25;97345.59;;;10.21;94.47
72210;BME280;60113;48.762;12.302;2022-10-16T06:08:52;97350.63;;;10.24;94.77
72210;BME280;60113;48.762;12.302;2022-10-16T06:11:24;97360.91;;;10.28;95.29
72210;BME280;60113;48.762;12.302;2022-10-16T06:13:55;97372.13;;;10.30;95.69
72210;BME280;60113;48.762;12.302;2022-10-16T06:16:22;97366.66;;;10.33;94.96
72210;BME280;60113;48.762;12.302;2022-10-16T06:18:50;97373.50;;;10.35;95.86
72210;BME280;60113;48.762;12.302;2022-10-16T06:21:18;97379.34;;;10.39;96.28
72210;BME280;60113;48.762;12.302;2022-10-16T06:23:44;97383.31;;;10.45;94.92
72210;BME280;60113;48.762;12.302;2022-10-16T06:26:16;97384.78;;;10.49;94.37
72210;BME280;60113;48.762;12.302;2022-10-16T06:28:41;97383.72;;;10.52;94.78
72210;BME280;60113;48.762;12.302;2022-10-16T06:31:08;97376.47;;;10.55;94.91
72210;BME280;60113;48.762;12.302;2022-10-16T06:33:35;97385.56;;;10.62;95.27
72210;BME280;60113;48.762;12.302;2022-10-16T06:36:19;97387.59;;;10.70;95.33
72210;BME280;60113;48.762;12.302;2022-10-16T06:38:45;97401.84;;;10.79;95.97
72210;BME280;60113;48.762;12.302;2022-10-16T06:41:14;97408.94;;;10.90;95.67
72210;BME280;60113;48.762;12.302;2022-10-16T06:43:41;97410.63;;;11.03;97.21
72210;BME280;60113;48.762;12.302;2022-10-16T06:46:09;97415.19;;;11.12;97.17
72210;BME280;60113;48.762;12.302;2022-10-16T06:48:35;97418.94;;;11.21;97.24
72210;BME280;60113;48.762;12.302;2022-10-16T06:51:07;97412.13;;;11.30;97.75
72210;BME280;60113;48.762;12.302;2022-10-16T06:53:35;97413.56;;;11.34;97.58
72210;BME280;60113;48.762;12.302;2022-10-16T06:56:12;97411.44;;;11.39;96.95
72210;BME280;60113;48.762;12.302;2022-10-16T06:58:38;97407.59;;;11.43;96.07
72210;BME280;60113;48.762;12.302;2022-10-16T07:01:05;97423.03;;;11.48;96.29
72210;BME280;60113;48.762;12.302;2022-10-16T07:03:31;97420.03;;;11.53;96.11
72210;BME280;60113;48.762;12.302;2022-10-16T07:05:57;97433.47;;;11.61;95.57
72210;BME280;60113;48.762;12.302;2022-10-16T07:08:22;97438.69;;;11.72;96.35
72210;BME280;60113;48.762;12.302;2022-10-16T07:10:58;97436.09;;;11.95;97.13
72210;BME280;60113;48.762;12.302;2022-10-16T07:13:23;97438.22;;;12.24;97.96
72210;BME280;60113;48.762;12.302;2022-10-16T07:15:49;97440.53;;;12.62;98.96
72210;BME280;60113;48.762;12.302;2022-10-16T07:18:14;97444.81;;;12.96;100.00
72210;BME280;60113;48.762;12.302;2022-10-16T07:20:40;97451.56;;;13.31;100.00
72210;BME280;60113;48.762;12.302;2022-10-16T07:23:06;97448.56;;;13.57;100.00
72210;BME280;60113;48.762;12.302;2022-10-16T07:25:32;97454.19;;;13.74;100.00
72210;BME280;60113;48.762;12.302;2022-10-16T07:27:57;97461.22;;;13.95;100.00
72210;BME280;60113;48.762;12.302;2022-10-16T07:30:23;97469.25;;;14.24;100.00
72210;BME280;60113;48.762;12.302;2022-10-16T07:32:48;97478.94;;;14.75;100.00
72210;BME280;60113;48.762;12.302;2022-10-16T07:35:14;97474.81;;;15.02;100.00
72210;BME280;60113;48.762;12.302;2022-10-16T07:37:44;97470.63;;;15.09;99.93
72210;BME280;60113;48.762;12.302;2022-10-16T07:40:10;97472.69;;;15.06;100.00
72210;BME280;60113;48.762;12.302;2022-10-16T07:42:35;97476.03;;;14.98;99.98
72210;BME280;60113;48.762;12.302;2022-10-16T07:45:01;97475.63;;;14.83;99.91
72210;BME280;60113;48.762;12.302;2022-10-16T07:47:26;97472.81;;;14.74;99.92
72210;BME280;60113;48.762;12.302;2022-10-16T07:49:52;97464.63;;;14.87;100.00
72210;BME280;60113;48.762;12.302;2022-10-16T07:52:17;97465.47;;;15.18;99.72
72210;BME280;60113;48.762;12.302;2022-10-16T07:54:43;97460.38;;;15.44;99.25
72210;BME280;60113;48.762;12.302;2022-10-16T07:57:08;97464.25;;;15.70;100.00
72210;BME280;60113;48.762;12.302;2022-10-16T07:59:34;97474.75;;;15.90;100.00
72210;BME280;60113;48.762;12.302;2022-10-16T08:01:59;97473.00;;;16.18;100.00
72210;BME280;60113;48.762;12.302;2022-10-16T08:04:25;97472.69;;;16.49;100.00
72210;BME280;60113;48.762;12.302;2022-10-16T08:06:51;97477.56;;;16.72;98.92
72210;BME280;60113;48.762;12.302;2022-10-16T08:09:17;97479.84;;;17.04;100.00
72210;BME280;60113;48.762;12.302;2022-10-16T08:11:43;97473.84;;;17.20;99.36
72210;BME280;60113;48.762;12.302;2022-10-16T08:14:08;97472.66;;;17.14;98.12
72210;BME280;60113;48.762;12.302;2022-10-16T08:16:34;97484.47;;;17.20;97.32
72210;BME280;60113;48.762;12.302;2022-10-16T08:18:59;97484.72;;;17.27;97.88
72210;BME280;60113;48.762;12.302;2022-10-16T08:21:25;97491.59;;;17.37;96.44
72210;BME280;60113;48.762;12.302;2022-10-16T08:23:53;97489.13;;;17.62;96.34
72210;BME280;60113;48.762;12.302;2022-10-16T08:26:18;97491.03;;;17.79;97.41
72210;BME280;60113;48.762;12.302;2022-10-16T08:28:44;97499.59;;;17.99;96.55
72210;BME280;60113;48.762;12.302;2022-10-16T08:31:14;97503.91;;;18.18;94.87
72210;BME280;60113;48.762;12.302;2022-10-16T08:33:42;97498.22;;;18.13;94.58
72210;BME280;60113;48.762;12.302;2022-10-16T08:36:09;97512.19;;;18.15;92.79
72210;BME280;60113;48.762;12.302;2022-10-16T08:38:35;97513.56;;;18.28;94.98
72210;BME280;60113;48.762;12.302;2022-10-16T08:49:12;97525.56;;;18.83;88.72
72210;BME280;60113;48.762;12.302;2022-10-16T08:51:41;97514.91;;;18.92;93.26
72210;BME280;60113;48.762;12.302;2022-10-16T08:56:50;97524.38;;;18.86;83.50
72210;BME280;60113;48.762;12.302;2022-10-16T08:59:16;97525.63;;;19.17;92.89
72210;BME280;60113;48.762;12.302;2022-10-16T09:01:45;97526.97;;;19.29;94.36
72210;BME280;60113;48.762;12.302;2022-10-16T09:04:38;97522.16;;;19.33;88.73
72210;BME280;60113;48.762;12.302;2022-10-16T09:10:09;97522.63;;;19.53;83.90
72210;BME280;60113;48.762;12.302;2022-10-16T09:13:18;97516.78;;;19.74;85.13
72210;BME280;60113;48.762;12.302;2022-10-16T09:16:01;97518.09;;;19.87;83.05
72210;BME280;60113;48.762;12.302;2022-10-16T09:18:41;97516.41;;;19.94;86.06
72210;BME280;60113;48.762;12.302;2022-10-16T09:21:19;97514.06;;;19.99;89.14
72210;BME280;60113;48.762;12.302;2022-10-16T09:23:54;97514.06;;;19.99;83.35
72210;BME280;60113;48.762;12.302;2022-10-16T09:26:22;97512.22;;;20.17;89.25
72210;BME280;60113;48.762;12.302;2022-10-16T09:28:52;97511.69;;;20.21;80.56
72210;BME280;60113;48.762;12.302;2022-10-16T09:31:20;97510.66;;;20.31;86.48
72210;BME280;60113;48.762;12.302;2022-10-16T09:33:53;97505.34;;;20.22;84.07
72210;BME280;60113;48.762;12.302;2022-10-16T09:36:21;97507.00;;;20.23;85.55
72210;BME280;60113;48.762;12.302;2022-10-16T09:38:48;97508.09;;;20.38;86.00
72210;BME280;60113;48.762;12.302;2022-10-16T09:41:22;97505.78;;;20.34;81.07
72210;BME280;60113;48.762;12.302;2022-10-16T09:46:28;97502.22;;;20.51;78.13
72210;BME280;60113;48.762;12.302;2022-10-16T09:48:59;97511.66;;;20.30;75.25
72210;BME280;60113;48.762;12.302;2022-10-16T09:51:28;97518.34;;;20.17;74.13
72210;BME280;60113;48.762;12.302;2022-10-16T09:53:57;97512.66;;;20.29;80.77
72210;BME280;60113;48.762;12.302;2022-10-16T09:56:31;97515.91;;;20.47;79.04
72210;BME280;60113;48.762;12.302;2022-10-16T09:59:21;97519.63;;;20.70;80.37
72210;BME280;60113;48.762;12.302;2022-10-16T10:01:51;97524.31;;;20.68;79.79
72210;BME280;60113;48.762;12.302;2022-10-16T10:04:21;97526.59;;;20.79;78.75
72210;BME280;60113;48.762;12.302;2022-10-16T10:06:52;97533.34;;;20.98;80.84
72210;BME280;60113;48.762;12.302;2022-10-16T10:09:37;97543.28;;;21.13;74.91
72210;BME280;60113;48.762;12.302;2022-10-16T10:12:05;97544.94;;;21.38;80.40
72210;BME280;60113;48.762;12.302;2022-10-16T10:14:34;97540.38;;;21.61;78.50
72210;BME280;60113;48.762;12.302;2022-10-16T10:22:58;97539.47;;;22.38;68.79
72210;BME280;60113;48.762;12.302;2022-10-16T10:30:49;97551.34;;;23.03;71.15
72210;BME280;60113;48.762;12.302;2022-10-16T10:36:30;97549.00;;;23.36;76.05
72210;BME280;60113;48.762;12.302;2022-10-16T10:47:45;97536.16;;;23.76;78.27
72210;BME280;60113;48.762;12.302;2022-10-16T10:50:25;97530.22;;;23.80;77.43
72210;BME280;60113;48.762;12.302;2022-10-16T10:52:53;97523.66;;;23.90;78.24
72210;BME280;60113;48.762;12.302;2022-10-16T10:58:15;97522.94;;;24.03;75.49
72210;BME280;60113;48.762;12.302;2022-10-16T11:06:30;97518.19;;;24.05;76.93
72210;BME280;60113;48.762;12.302;2022-10-16T11:11:53;97516.69;;;24.24;71.80
72210;BME280;60113;48.762;12.302;2022-10-16T11:14:26;97510.81;;;24.49;76.01
72210;BME280;60113;48.762;12.302;2022-10-16T11:17:05;97509.97;;;24.48;71.41
72210;BME280;60113;48.762;12.302;2022-10-16T11:19:52;97505.66;;;24.54;72.09
72210;BME280;60113;48.762;12.302;2022-10-16T11:24:59;97508.56;;;24.59;65.17
72210;BME280;60113;48.762;12.302;2022-10-16T11:27:37;97509.19;;;24.62;68.74
72210;BME280;60113;48.762;12.302;2022-10-16T11:30:14;97515.13;;;24.50;70.44
72210;BME280;60113;48.762;12.302;2022-10-16T11:36:02;97513.25;;;24.37;68.94
72210;BME280;60113;48.762;12.302;2022-10-16T11:38:36;97516.94;;;24.36;70.26
72210;BME280;60113;48.762;12.302;2022-10-16T11:41:18;97524.19;;;24.35;64.51
72210;BME280;60113;48.762;12.302;2022-10-16T11:43:58;97520.25;;;24.38;67.63
72210;BME280;60113;48.762;12.302;2022-10-16T11:46:30;97513.09;;;24.52;71.23
72210;BME280;60113;48.762;12.302;2022-10-16T11:49:06;97513.31;;;24.64;66.48
72210;BME280;60113;48.762;12.302;2022-10-16T11:51:37;97516.69;;;24.80;71.41
72210;BME280;60113;48.762;12.302;2022-10-16T11:56:51;97521.25;;;24.86;69.68
72210;BME280;60113;48.762;12.302;2022-10-16T11:59:32;97511.28;;;24.73;70.67
72210;BME280;60113;48.762;12.302;2022-10-16T12:04:53;97527.13;;;24.47;63.00
72210;BME280;60113;48.762;12.302;2022-10-16T12:07:36;97522.78;;;24.46;63.41
72210;BME280;60113;48.762;12.302;2022-10-16T12:10:22;97517.22;;;24.48;56.95
72210;BME280;60113;48.762;12.302;2022-10-16T12:12:49;97519.09;;;24.61;69.23
72210;BME280;60113;48.762;12.302;2022-10-16T12:15:26;97519.75;;;24.63;59.75
72210;BME280;60113;48.762;12.302;2022-10-16T12:17:53;97520.38;;;24.65;69.08
72210;BME280;60113;48.762;12.302;2022-10-16T12:20:22;97516.81;;;24.58;67.52
72210;BME280;60113;48.762;12.302;2022-10-16T12:23:02;97523.22;;;24.57;63.22
72210;BME280;60113;48.762;12.302;2022-10-16T12:25:31;97515.81;;;24.59;67.58
72210;BME280;60113;48.762;12.302;2022-10-16T12:28:04;97509.63;;;24.65;68.08
72210;BME280;60113;48.762;12.302;2022-10-16T12:30:31;97517.22;;;24.48;55.88
72210;BME280;60113;48.762;12.302;2022-10-16T12:33:01;97507.94;;;24.57;66.11
72210;BME280;60113;48.762;12.302;2022-10-16T12:35:30;97504.66;;;24.62;64.84
72210;BME280;60113;48.762;12.302;2022-10-16T12:38:36;97507.63;;;24.32;59.28
72210;BME280;60113;48.762;12.302;2022-10-16T12:41:05;97509.53;;;24.09;65.61
72210;BME280;60113;48.762;12.302;2022-10-16T12:43:41;97505.44;;;23.78;59.93
72210;BME280;60113;48.762;12.302;2022-10-16T12:48:33;97513.22;;;23.22;64.41
72210;BME280;60113;48.762;12.302;2022-10-16T12:51:19;97504.53;;;23.20;61.72
72210;BME280;60113;48.762;12.302;2022-10-16T12:54:18;97508.75;;;23.30;64.24
72210;BME280;60113;48.762;12.302;2022-10-16T12:56:50;97512.44;;;23.51;65.00
72210;BME280;60113;48.762;12.302;2022-10-16T13:02:36;97515.78;;;23.81;64.25
72210;BME280;60113;48.762;12.302;2022-10-16T13:19:27;97526.84;;;24.00;59.27
72210;BME280;60113;48.762;12.302;2022-10-16T13:27:29;97526.16;;;24.62;59.77
72210;BME280;60113;48.762;12.302;2022-10-16T13:30:29;97525.59;;;24.80;54.79
72210;BME280;60113;48.762;12.302;2022-10-16T13:33:00;97529.38;;;25.00;57.71
72210;BME280;60113;48.762;12.302;2022-10-16T13:35:29;97526.09;;;25.11;64.25
72210;BME280;60113;48.762;12.302;2022-10-16T13:40:30;97532.69;;;25.02;63.25
72210;BME280;60113;48.762;12.302;2022-10-16T13:42:59;97537.56;;;24.84;60.12
72210;BME280;60113;48.762;12.302;2022-10-16T13:45:25;97546.16;;;24.53;62.16
72210;BME280;60113;48.762;12.302;2022-10-16T13:48:04;97543.97;;;24.28;59.24
72210;BME280;60113;48.762;12.302;2022-10-16T13:50:30;97546.00;;;24.26;62.37
72210;BME280;60113;48.762;12.302;2022-10-16T13:53:04;97551.41;;;24.04;59.85
72210;BME280;60113;48.762;12.302;2022-10-16T13:55:30;97552.78;;;23.93;62.03
72210;BME280;60113;48.762;12.302;2022-10-16T13:58:13;97561.00;;;23.84;58.34
72210;BME280;60113;48.762;12.302;2022-10-16T14:00:40;97555.44;;;23.86;62.13
72210;BME280;60113;48.762;12.302;2022-10-16T14:03:16;97564.47;;;23.78;59.54
72210;BME280;60113;48.762;12.302;2022-10-16T14:05:54;97560.09;;;23.77;58.70
72210;BME280;60113;48.762;12.302;2022-10-16T14:08:20;97562.06;;;23.90;62.96
72210;BME280;60113;48.762;12.302;2022-10-16T14:10:51;97559.91;;;24.07;62.27
72210;BME280;60113;48.762;12.302;2022-10-16T14:13:23;97559.81;;;24.22;62.72
72210;BME280;60113;48.762;12.302;2022-10-16T14:15:52;97556.78;;;24.32;62.92
72210;BME280;60113;48.762;12.302;2022-10-16T14:18:24;97556.59;;;24.41;59.74
72210;BME280;60113;48.762;12.302;2022-10-16T14:20:52;97552.69;;;24.37;57.41
72210;BME280;60113;48.762;12.302;2022-10-16T14:23:43;97558.09;;;24.43;58.95
72210;BME280;60113;48.762;12.302;2022-10-16T14:28:34;97557.09;;;24.51;62.93
72210;BME280;60113;48.762;12.302;2022-10-16T14:31:02;97549.88;;;24.58;62.25
72210;BME280;60113;48.762;12.302;2022-10-16T14:38:41;97553.59;;;24.15;57.80
72210;BME280;60113;48.762;12.302;2022-10-16T14:41:08;97550.63;;;24.10;61.22
72210;BME280;60113;48.762;12.302;2022-10-16T14:43:37;97552.38;;;24.18;61.19
72210;BME280;60113;48.762;12.302;2022-10-16T14:46:11;97538.00;;;24.32;61.21
72210;BME280;60113;48.762;12.302;2022-10-16T14:48:50;97547.75;;;24.40;58.08
72210;BME280;60113;48.762;12.302;2022-10-16T14:51:19;97546.47;;;24.36;60.10
72210;BME280;60113;48.762;12.302;2022-10-16T14:53:45;97549.94;;;24.30;61.51
72210;BME280;60113;48.762;12.302;2022-10-16T14:56:18;97548.94;;;24.31;61.20